Map

Track Data

SID SEASON NUMBER BASIN SUBBASIN NAME ISO_TIME NATURE LAT LON WMO_WIND WMO_PRES WMO_AGENCY TRACK_TYPE DIST2LAND LANDFALL IFLAG USA_AGENCY USA_ATCF_ID USA_LAT USA_LON USA_RECORD USA_STATUS USA_WIND USA_PRES USA_SSHS USA_R34_NE USA_R34_SE USA_R34_SW USA_R34_NW USA_R50_NE USA_R50_SE USA_R50_SW USA_R50_NW USA_R64_NE USA_R64_SE USA_R64_SW USA_R64_NW USA_POCI USA_ROCI USA_RMW USA_EYE TOKYO_LAT TOKYO_LON TOKYO_GRADE TOKYO_WIND TOKYO_PRES TOKYO_R50_DIR TOKYO_R50_LONG TOKYO_R50_SHORT TOKYO_R30_DIR TOKYO_R30_LONG TOKYO_R30_SHORT TOKYO_LAND CMA_LAT CMA_LON CMA_CAT CMA_WIND CMA_PRES HKO_LAT HKO_LON HKO_CAT HKO_WIND HKO_PRES NEWDELHI_LAT NEWDELHI_LON NEWDELHI_GRADE NEWDELHI_WIND NEWDELHI_PRES NEWDELHI_CI NEWDELHI_DP NEWDELHI_POCI REUNION_LAT REUNION_LON REUNION_TYPE REUNION_WIND REUNION_PRES REUNION_TNUM REUNION_CI REUNION_RMW REUNION_R34_NE REUNION_R34_SE REUNION_R34_SW REUNION_R34_NW REUNION_R50_NE REUNION_R50_SE REUNION_R50_SW REUNION_R50_NW REUNION_R64_NE REUNION_R64_SE REUNION_R64_SW REUNION_R64_NW BOM_LAT BOM_LON BOM_TYPE BOM_WIND BOM_PRES BOM_TNUM BOM_CI BOM_RMW BOM_R34_NE BOM_R34_SE BOM_R34_SW BOM_R34_NW BOM_R50_NE BOM_R50_SE BOM_R50_SW BOM_R50_NW BOM_R64_NE BOM_R64_SE BOM_R64_SW BOM_R64_NW BOM_ROCI BOM_POCI BOM_EYE BOM_POS_METHOD BOM_PRES_METHOD NADI_LAT NADI_LON NADI_CAT NADI_WIND NADI_PRES WELLINGTON_LAT WELLINGTON_LON WELLINGTON_WIND WELLINGTON_PRES DS824_LAT DS824_LON DS824_STAGE DS824_WIND DS824_PRES TD9636_LAT TD9636_LON TD9636_STAGE TD9636_WIND TD9636_PRES TD9635_LAT TD9635_LON TD9635_WIND TD9635_PRES TD9635_ROCI NEUMANN_LAT NEUMANN_LON NEUMANN_CLASS NEUMANN_WIND NEUMANN_PRES MLC_LAT MLC_LON MLC_CLASS MLC_WIND MLC_PRES USA_GUST BOM_GUST BOM_GUST_PER REUNION_GUST REUNION_GUST_PER USA_SEAHGT USA_SEARAD_NE USA_SEARAD_SE USA_SEARAD_SW USA_SEARAD_NW STORM_SPEED STORM_DIR
1895180N17117 1895 16 WP MM NOT_NAMED 1895-06-28 16:00:00 NR 17.0000 117.300 main 277 277 __________O___ -1 17.0000 117.300 7 15 305
1895180N17117 1895 16 WP MM NOT_NAMED 1895-06-28 18:00:00 NR 17.2848 116.870 main 328 338 __________P___ -1 17.2848 116.870 7 15 305
1895180N17117 1895 16 WP MM NOT_NAMED 1895-06-28 21:00:00 NR 17.6917 116.247 main 413 413 __________P___ -1 17.6917 116.247 7 14 304
1895180N17117 1895 16 WP MM NOT_NAMED 1895-06-29 00:00:00 NR 18.0490 115.686 main 475 457 __________P___ -1 18.0490 115.686 7 12 303
1895180N17117 1895 16 WP MM NOT_NAMED 1895-06-29 03:00:00 NR 18.3288 115.225 main 457 444 __________P___ -1 18.3288 115.225 7 10 302
1895180N17117 1895 16 WP MM NOT_NAMED 1895-06-29 04:00:00 NR 18.4000 115.100 main 444 427 __________O___ -1 18.4000 115.100 3 7 300
1895180N17117 1895 16 WP MM NOT_NAMED 1895-06-29 06:00:00 NR 18.5067 114.899 main 427 404 __________P___ -1 18.5067 114.899 3 5 297
1895180N17117 1895 16 WP MM NOT_NAMED 1895-06-29 09:00:00 NR 18.5979 114.686 main 404 384 __________P___ -1 18.5979 114.686 3 4 291
1895180N17117 1895 16 WP MM NOT_NAMED 1895-06-29 12:00:00 NR 18.6428 114.529 main 384 371 __________P___ -1 18.6428 114.529 3 3 285
1895180N17117 1895 16 WP MM NOT_NAMED 1895-06-29 15:00:00 NR 18.6815 114.366 main 371 360 __________P___ -1 18.6815 114.366 3 3 285
1895180N17117 1895 16 WP MM NOT_NAMED 1895-06-29 16:00:00 NR 18.7000 114.300 main 360 337 __________O___ -1 18.7000 114.300 4 5 292
1895180N17117 1895 16 WP MM NOT_NAMED 1895-06-29 18:00:00 NR 18.7772 114.112 main 337 304 __________P___ -1 18.7772 114.112 4 6 293
1895180N17117 1895 16 WP MM NOT_NAMED 1895-06-29 21:00:00 NR 18.9058 113.798 main 304 270 __________P___ -1 18.9058 113.798 4 7 293
1895180N17117 1895 16 WP MM NOT_NAMED 1895-06-30 00:00:00 NR 19.0384 113.461 main 270 224 __________P___ -1 19.0384 113.461 4 7 292
1895180N17117 1895 16 WP MM NOT_NAMED 1895-06-30 03:00:00 NR 19.1626 113.115 main 224 214 __________P___ -1 19.1626 113.115 4 7 290
1895180N17117 1895 16 WP MM NOT_NAMED 1895-06-30 04:00:00 NR 19.2000 113.000 main 214 191 __________O___ -1 19.2000 113.000 4 7 287
1895180N17117 1895 16 WP MM NOT_NAMED 1895-06-30 06:00:00 NR 19.2587 112.778 main 191 150 __________P___ -1 19.2587 112.778 4 6 284
1895180N17117 1895 16 WP MM NOT_NAMED 1895-06-30 09:00:00 NR 19.3342 112.445 main 150 117 __________P___ -1 19.3342 112.445 4 6 283
1895180N17117 1895 16 WP MM NOT_NAMED 1895-06-30 12:00:00 NR 19.4029 112.117 main 117 84 __________P___ -1 19.4029 112.117 4 6 283
1895180N17117 1895 16 WP MM NOT_NAMED 1895-06-30 15:00:00 NR 19.4741 111.802 main 84 74 __________P___ -1 19.4741 111.802 4 6 284
1895180N17117 1895 16 WP MM NOT_NAMED 1895-06-30 16:00:00 NR 19.5000 111.700 main 74 53 __________O___ -1 19.5000 111.700 4 6 285
1895180N17117 1895 16 WP MM NOT_NAMED 1895-06-30 18:00:00 NR 19.5475 111.518 main 53 31 __________P___ -1 19.5475 111.518 4 5 287
1895180N17117 1895 16 WP MM NOT_NAMED 1895-06-30 21:00:00 NR 19.6250 111.258 main 31 10 __________P___ -1 19.6250 111.258 4 5 289
1895180N17117 1895 16 WP MM NOT_NAMED 1895-07-01 00:00:00 NR 19.7211 110.995 main 10 0 __________P___ -1 19.7211 110.995 4 6 293
1895180N17117 1895 16 WP MM NOT_NAMED 1895-07-01 03:00:00 NR 19.8485 110.706 main 0 0 __________P___ -1 19.8485 110.706 4 6 296
1895180N17117 1895 16 WP MM NOT_NAMED 1895-07-01 04:00:00 NR 19.9000 110.600 main 0 0 __________O___ -1 19.9000 110.600 4 7 297
1895180N17117 1895 16 WP MM NOT_NAMED 1895-07-01 06:00:00 NR 20.0136 110.362 main 0 0 __________P___ -1 20.0136 110.362 4 8 298
1895180N17117 1895 16 WP MM NOT_NAMED 1895-07-01 09:00:00 NR 20.2154 109.973 main 10 0 __________P___ -1 20.2154 109.973 4 9 300
1895180N17117 1895 16 WP MM NOT_NAMED 1895-07-01 12:00:00 NR 20.4492 109.560 main 23 31 __________P___ -1 20.4492 109.560 4 9 302
1895180N17117 1895 16 WP MM NOT_NAMED 1895-07-01 15:00:00 NR 20.7088 109.139 main 63 62 __________P___ -1 20.7088 109.139 4 9 304
1895180N17117 1895 16 WP MM NOT_NAMED 1895-07-01 16:00:00 NR 20.8000 109.000 main 70 60 __________O___ -1 20.8000 109.000 4 10 306
1895180N17117 1895 16 WP MM NOT_NAMED 1895-07-01 18:00:00 NR 20.9882 108.725 main 67 24 __________P___ -1 20.9882 108.725 4 10 307
1895180N17117 1895 16 WP MM NOT_NAMED 1895-07-01 21:00:00 NR 21.2824 108.322 main 24 0 __________P___ -1 21.2824 108.322 4 10 309
1895180N17117 1895 16 WP MM NOT_NAMED 1895-07-02 00:00:00 NR 21.5867 107.925 main 0 0 __________P___ -1 21.5867 107.925 4 10 310
1895180N17117 1895 16 WP MM NOT_NAMED 1895-07-02 03:00:00 NR 21.8964 107.531 main 0 0 __________P___ -1 21.8964 107.531 4 10 310
1895180N17117 1895 16 WP MM NOT_NAMED 1895-07-02 04:00:00 NR 22.0000 107.400 main 0 __________O___ -1 22.0000 107.400 7 10 311

Digital Typhoon Data and Search

About IBTrACS Database

This database is a web-friendly format of International Best Track Archive for Climate Stewardship (IBTrACS), a global best track data archive curated by NOAA dating back to 1842.

Updated: 2021-10-21